createdAt,value
2018-02-19T00:00:30.714Z,0.49
2018-02-19T00:01:33.183Z,0.39
2018-02-19T00:02:35.669Z,0.38
2018-02-19T00:03:38.161Z,0.32
2018-02-19T00:04:40.673Z,0.51
2018-02-19T00:05:43.172Z,0.47
2018-02-19T00:06:45.640Z,0.46
2018-02-19T00:07:48.123Z,0.44
2018-02-19T00:08:50.607Z,0.47
2018-02-19T00:09:53.140Z,0.51
2018-02-19T00:10:55.654Z,0.39
2018-02-19T00:11:58.141Z,0.33
2018-02-19T00:13:00.616Z,0.31
2018-02-19T00:14:03.108Z,0.27
2018-02-19T00:15:05.609Z,0.26
2018-02-19T00:16:08.110Z,0.18
2018-02-19T00:17:10.584Z,0.31
2018-02-19T00:18:13.059Z,0.38
2018-02-19T00:19:15.567Z,0.28
2018-02-19T00:20:18.043Z,0.35
2018-02-19T00:21:20.557Z,0.40
2018-02-19T00:22:23.049Z,0.37
2018-02-19T00:23:25.522Z,0.34
2018-02-19T00:24:28.020Z,0.40
2018-02-19T00:25:30.545Z,0.32
2018-02-19T00:26:33.007Z,0.27
2018-02-19T00:27:35.508Z,0.31
2018-02-19T00:28:37.991Z,0.48
2018-02-19T00:29:40.478Z,0.32
2018-02-19T00:30:42.976Z,0.22
2018-02-19T00:31:45.488Z,0.22
2018-02-19T00:32:47.976Z,0.22
2018-02-19T00:33:50.465Z,0.29
2018-02-19T00:34:52.957Z,0.33
2018-02-19T00:35:55.437Z,0.33
2018-02-19T00:36:58.008Z,0.32
2018-02-19T00:38:00.486Z,0.19
2018-02-19T00:39:02.970Z,0.26
2018-02-19T00:40:05.477Z,0.27
2018-02-19T00:41:07.963Z,0.27
2018-02-19T00:42:10.487Z,0.37
2018-02-19T00:43:12.971Z,0.37
2018-02-19T00:44:15.443Z,0.20
2018-02-19T00:45:17.916Z,0.22
2018-02-19T00:46:20.415Z,0.18
2018-02-19T00:47:22.916Z,0.13
2018-02-19T00:48:25.411Z,0.05
2018-02-19T00:49:27.913Z,0.18
2018-02-19T00:50:30.400Z,0.12
2018-02-19T00:51:32.926Z,0.19
2018-02-19T00:52:35.452Z,0.21
2018-02-19T00:53:37.954Z,0.34
2018-02-19T00:54:40.432Z,0.29
2018-02-19T00:55:42.912Z,0.24
2018-02-19T00:56:45.387Z,0.23
2018-02-19T00:57:47.888Z,0.34
2018-02-19T00:58:50.364Z,0.19
2018-02-19T00:59:52.866Z,0.14
2018-02-19T01:00:55.360Z,0.15
2018-02-19T01:01:57.840Z,0.14
2018-02-19T01:03:00.347Z,0.15
2018-02-19T01:04:02.815Z,0.19
2018-02-19T01:05:05.302Z,0.22
2018-02-19T01:06:07.783Z,0.11
2018-02-19T01:07:10.267Z,0.15
2018-02-19T01:08:12.755Z,0.04
2018-02-19T01:09:15.239Z,0.13
2018-02-19T01:10:17.725Z,0.17
2018-02-19T01:11:20.201Z,0.10
2018-02-19T01:12:22.689Z,0.01
2018-02-19T01:13:25.210Z,0.07
2018-02-19T01:14:28.502Z,0.05
2018-02-19T01:15:30.989Z,0.14
2018-02-19T01:16:33.550Z,0.06
2018-02-19T01:17:36.051Z,0.09
2018-02-19T01:18:38.570Z,0.05
2018-02-19T01:19:41.046Z,0.04
2018-02-19T01:20:43.527Z,-0.07
2018-02-19T01:21:46.032Z,-0.01
2018-02-19T01:22:48.512Z,-0.07
2018-02-19T01:23:51.025Z,-0.12
2018-02-19T01:24:53.525Z,-0.07
2018-02-19T01:25:56.023Z,-0.07
2018-02-19T01:26:58.501Z,0.04
2018-02-19T01:28:00.990Z,0.05
2018-02-19T01:29:03.506Z,0.11
2018-02-19T01:30:06.032Z,0.19
2018-02-19T01:31:08.523Z,0.15
2018-02-19T01:32:11.025Z,0.07
2018-02-19T01:33:13.516Z,0.11
2018-02-19T01:34:16.028Z,0.15
2018-02-19T01:35:18.503Z,0.11
2018-02-19T01:36:21.000Z,0.08
2018-02-19T01:37:23.485Z,0.12
2018-02-19T01:38:25.977Z,0.02
2018-02-19T01:39:28.485Z,-0.07
2018-02-19T01:40:30.974Z,0.03
2018-02-19T01:41:33.473Z,0.01
2018-02-19T01:42:35.963Z,0.12
2018-02-19T01:43:38.446Z,0.02
2018-02-19T01:44:40.950Z,0.11
2018-02-19T01:45:43.427Z,0.12
2018-02-19T01:46:45.907Z,0.11
2018-02-19T01:47:48.400Z,0.04
2018-02-19T01:48:50.898Z,0.03
2018-02-19T01:50:05.130Z,0.06
2018-02-19T01:51:07.620Z,0.07
2018-02-19T01:52:10.119Z,0.09
2018-02-19T01:53:12.613Z,-0.05
2018-02-19T01:54:15.090Z,0.08
2018-02-19T01:55:17.610Z,0.01
2018-02-19T01:56:20.119Z,0.03
2018-02-19T01:57:22.615Z,-0.01
2018-02-19T01:58:25.116Z,0.06
2018-02-19T01:59:27.631Z,0.06
2018-02-19T02:00:30.136Z,-0.01
2018-02-19T02:01:32.640Z,0.11
2018-02-19T02:02:35.133Z,0.00
2018-02-19T02:03:37.625Z,0.11
2018-02-19T02:04:40.118Z,0.13
2018-02-19T02:05:42.624Z,0.12
2018-02-19T02:06:45.118Z,-0.03
2018-02-19T02:07:47.596Z,0.05
2018-02-19T02:08:50.079Z,-0.02
2018-02-19T02:09:52.565Z,-0.03
2018-02-19T02:10:55.081Z,0.00
2018-02-19T02:11:57.552Z,0.08
2018-02-19T02:13:00.045Z,0.11
2018-02-19T02:14:02.539Z,0.11
2018-02-19T02:15:05.046Z,0.02
2018-02-19T02:16:07.546Z,0.06
2018-02-19T02:17:10.047Z,-0.07
2018-02-19T02:18:12.542Z,-0.02
2018-02-19T02:19:15.032Z,-0.06
2018-02-19T02:20:17.525Z,0.05
2018-02-19T02:21:20.027Z,0.03
2018-02-19T02:22:22.504Z,0.02
2018-02-19T02:23:25.024Z,0.13
2018-02-19T02:24:27.529Z,-0.06
2018-02-19T02:25:30.026Z,-0.05
2018-02-19T02:26:32.543Z,-0.02
2018-02-19T02:27:35.021Z,-0.06
2018-02-19T02:28:37.517Z,-0.06
2018-02-19T02:29:40.011Z,-0.08
2018-02-19T02:30:42.502Z,-0.10
2018-02-19T02:31:45.013Z,-0.01
2018-02-19T02:32:47.499Z,-0.10
2018-02-19T02:33:49.980Z,-0.19
2018-02-19T02:34:52.460Z,-0.07
2018-02-19T02:35:54.954Z,-0.17
2018-02-19T02:36:58.077Z,-0.14
2018-02-19T02:38:00.581Z,-0.12
2018-02-19T02:39:03.065Z,-0.18
2018-02-19T02:40:05.619Z,-0.26
2018-02-19T02:41:08.133Z,-0.16
2018-02-19T02:42:10.635Z,-0.12
2018-02-19T02:43:13.115Z,-0.18
2018-02-19T02:44:15.604Z,-0.20
2018-02-19T02:45:18.102Z,-0.21
2018-02-19T02:46:20.580Z,-0.16
2018-02-19T02:47:23.077Z,-0.23
2018-02-19T02:48:25.578Z,-0.19
2018-02-19T02:49:28.064Z,-0.24
2018-02-19T02:50:30.556Z,-0.28
2018-02-19T02:51:33.047Z,-0.24
2018-02-19T02:52:35.562Z,-0.31
2018-02-19T02:53:38.042Z,-0.22
2018-02-19T02:54:40.555Z,-0.15
2018-02-19T02:55:43.040Z,-0.14
2018-02-19T02:56:45.513Z,-0.21
2018-02-19T02:57:48.046Z,-0.20
2018-02-19T02:58:50.543Z,-0.23
2018-02-19T02:59:53.030Z,-0.33
2018-02-19T03:00:55.506Z,-0.37
2018-02-19T03:01:57.989Z,-0.27
2018-02-19T03:03:00.514Z,-0.21
2018-02-19T03:04:02.998Z,-0.31
2018-02-19T03:05:05.497Z,-0.43
2018-02-19T03:06:07.984Z,-0.40
2018-02-19T03:07:10.484Z,-0.24
2018-02-19T03:08:13.012Z,-0.27
2018-02-19T03:09:15.483Z,-0.25
2018-02-19T03:10:17.980Z,-0.30
2018-02-19T03:11:20.473Z,-0.32
2018-02-19T03:12:22.962Z,-0.25
2018-02-19T03:13:25.485Z,-0.09
2018-02-19T03:14:27.959Z,-0.26
2018-02-19T03:15:30.465Z,-0.22
2018-02-19T03:16:32.943Z,-0.17
2018-02-19T03:17:35.432Z,-0.13
2018-02-19T03:18:37.957Z,-0.21
2018-02-19T03:19:40.516Z,-0.13
2018-02-19T03:20:43.035Z,-0.17
2018-02-19T03:21:45.511Z,-0.11
2018-02-19T03:22:48.035Z,-0.13
2018-02-19T03:23:50.556Z,-0.08
2018-02-19T03:24:53.049Z,-0.15
2018-02-19T03:25:55.539Z,-0.24
2018-02-19T03:26:58.045Z,-0.22
2018-02-19T03:28:00.571Z,-0.07
2018-02-19T03:29:03.075Z,-0.08
2018-02-19T03:30:05.578Z,-0.10
2018-02-19T03:31:08.076Z,-0.16
2018-02-19T03:32:10.571Z,-0.21
2018-02-19T03:33:13.063Z,-0.18
2018-02-19T03:34:15.577Z,-0.10
2018-02-19T03:35:18.078Z,-0.12
2018-02-19T03:36:20.573Z,0.04
2018-02-19T03:37:23.058Z,0.07
2018-02-19T03:38:25.594Z,0.17
2018-02-19T03:39:28.087Z,0.13
2018-02-19T03:40:30.572Z,0.11
2018-02-19T03:41:33.057Z,0.12
2018-02-19T03:42:35.563Z,0.03
2018-02-19T03:43:38.053Z,0.19
2018-02-19T03:44:40.590Z,0.16
2018-02-19T03:45:43.072Z,0.22
2018-02-19T03:46:45.570Z,0.22
2018-02-19T03:47:48.061Z,0.13
2018-02-19T03:48:50.539Z,0.08
2018-02-19T03:49:53.072Z,0.02
2018-02-19T03:50:55.559Z,0.08
2018-02-19T03:51:58.056Z,0.07
2018-02-19T03:53:00.543Z,0.10
2018-02-19T03:54:03.018Z,0.03
2018-02-19T03:55:05.515Z,0.17
2018-02-19T03:56:08.034Z,0.39
2018-02-19T03:57:10.539Z,0.26
2018-02-19T03:58:13.043Z,0.13
2018-02-19T03:59:15.525Z,0.02
2018-02-19T04:00:18.051Z,0.19
2018-02-19T04:01:20.540Z,0.32
2018-02-19T04:02:23.030Z,0.37
2018-02-19T04:03:25.519Z,0.40
2018-02-19T04:04:28.027Z,0.31
2018-02-19T04:05:30.523Z,0.26
2018-02-19T04:06:33.025Z,0.27
2018-02-19T04:07:35.585Z,0.30
2018-02-19T04:08:38.090Z,0.33
2018-02-19T04:09:40.586Z,0.31
2018-02-19T04:10:43.096Z,0.20
2018-02-19T04:11:45.591Z,-0.01
2018-02-19T04:12:48.067Z,0.03
2018-02-19T04:13:50.540Z,0.20
2018-02-19T04:14:53.021Z,0.17
2018-02-19T04:15:55.518Z,0.05
2018-02-19T04:16:57.999Z,0.08
2018-02-19T04:18:00.485Z,0.05
2018-02-19T04:19:02.980Z,0.03
2018-02-19T04:20:05.478Z,0.01
2018-02-19T04:21:08.001Z,0.07
2018-02-19T04:22:10.497Z,0.02
2018-02-19T04:23:12.998Z,0.19
2018-02-19T04:24:15.471Z,0.21
2018-02-19T04:25:17.993Z,0.20
2018-02-19T04:26:20.505Z,0.16
2018-02-19T04:27:22.991Z,0.10
2018-02-19T04:28:25.472Z,0.20
2018-02-19T04:29:27.943Z,0.16
2018-02-19T04:30:30.446Z,0.07
2018-02-19T04:31:32.979Z,0.20
2018-02-19T04:32:35.466Z,0.23
2018-02-19T04:33:37.931Z,0.25
2018-02-19T04:34:40.420Z,0.29
2018-02-19T04:35:42.935Z,0.35
2018-02-19T04:36:45.480Z,0.21
2018-02-19T04:37:47.970Z,0.14
2018-02-19T04:38:50.492Z,0.24
2018-02-19T04:39:52.967Z,0.15
2018-02-19T04:40:55.442Z,0.21
2018-02-19T04:41:57.968Z,0.16
2018-02-19T04:43:02.831Z,0.16
2018-02-19T04:44:05.307Z,0.16
2018-02-19T04:45:10.078Z,0.09
2018-02-19T04:46:13.489Z,0.07
2018-02-19T04:47:15.993Z,0.02
2018-02-19T04:48:18.494Z,-0.04
2018-02-19T04:49:20.992Z,0.11
2018-02-19T04:50:23.480Z,-0.01
2018-02-19T04:51:25.955Z,0.06
2018-02-19T04:52:28.474Z,0.05
2018-02-19T04:53:30.979Z,-0.05
2018-02-19T04:54:33.466Z,0.10
2018-02-19T04:55:35.966Z,-0.01
2018-02-19T04:56:38.477Z,-0.15
2018-02-19T04:57:40.981Z,0.01
2018-02-19T04:58:43.485Z,0.05
2018-02-19T04:59:45.973Z,-0.07
2018-02-19T05:00:48.448Z,-0.03
2018-02-19T05:01:50.916Z,0.04
2018-02-19T05:02:53.421Z,0.00
2018-02-19T05:03:55.909Z,0.06
2018-02-19T05:04:58.414Z,0.00
2018-02-19T05:06:00.901Z,0.00
2018-02-19T05:07:03.397Z,0.00
2018-02-19T05:08:05.904Z,-0.01
2018-02-19T05:09:08.408Z,0.05
2018-02-19T05:10:10.914Z,-0.02
2018-02-19T05:11:13.402Z,0.03
2018-02-19T05:12:15.885Z,0.07
2018-02-19T05:13:18.387Z,-0.02
2018-02-19T05:14:20.867Z,-0.02
2018-02-19T05:15:23.348Z,0.01
2018-02-19T05:16:25.835Z,-0.02
2018-02-19T05:17:28.325Z,-0.04
2018-02-19T05:18:30.830Z,-0.02
2018-02-19T05:19:33.307Z,0.06
2018-02-19T05:20:35.798Z,0.01
2018-02-19T05:21:38.290Z,0.06
2018-02-19T05:22:40.769Z,0.02
2018-02-19T05:23:43.282Z,0.08
2018-02-19T05:24:45.769Z,0.00
2018-02-19T05:25:48.363Z,0.03
2018-02-19T05:26:50.833Z,0.06
2018-02-19T05:27:53.345Z,0.10
2018-02-19T05:28:55.864Z,0.13
2018-02-19T05:29:58.360Z,0.08
2018-02-19T05:31:00.830Z,0.12
2018-02-19T05:32:03.337Z,0.18
2018-02-19T05:33:05.821Z,0.23
2018-02-19T05:34:08.342Z,0.20
2018-02-19T05:35:10.853Z,0.12
2018-02-19T05:36:13.354Z,0.15
2018-02-19T05:37:15.850Z,0.20
2018-02-19T05:38:18.324Z,0.14
2018-02-19T05:39:20.847Z,0.19
2018-02-19T05:40:23.349Z,0.17
2018-02-19T05:41:25.841Z,0.23
2018-02-19T05:42:28.329Z,0.32
2018-02-19T05:43:30.862Z,0.26
2018-02-19T05:44:33.364Z,0.27
2018-02-19T05:45:35.839Z,0.24
2018-02-19T05:46:38.327Z,0.29
2018-02-19T05:47:40.832Z,0.25
2018-02-19T05:48:43.322Z,0.32
2018-02-19T05:49:45.832Z,0.26
2018-02-19T05:50:48.334Z,0.17
2018-02-19T05:51:50.835Z,0.10
2018-02-19T05:52:53.315Z,0.16
2018-02-19T05:53:55.850Z,0.20
2018-02-19T05:54:58.362Z,0.28
2018-02-19T05:56:00.854Z,0.22
2018-02-19T05:57:03.332Z,0.26
2018-02-19T05:58:05.812Z,0.20
2018-02-19T05:59:08.307Z,0.17
2018-02-19T06:00:10.817Z,0.18
2018-02-19T06:01:13.295Z,0.18
2018-02-19T06:02:15.802Z,0.21
2018-02-19T06:03:18.311Z,0.28
2018-02-19T06:04:20.828Z,0.31
2018-02-19T06:05:23.355Z,0.23
2018-02-19T06:06:25.851Z,0.20
2018-02-19T06:07:28.337Z,0.25
2018-02-19T06:08:30.820Z,0.29
2018-02-19T06:09:33.308Z,0.33
2018-02-19T06:10:35.816Z,0.22
2018-02-19T06:11:38.301Z,0.25
2018-02-19T06:12:40.823Z,0.43
2018-02-19T06:13:43.314Z,0.37
2018-02-19T06:14:45.787Z,0.28
2018-02-19T06:15:48.314Z,0.30
2018-02-19T06:16:50.856Z,0.44
2018-02-19T06:17:53.348Z,0.44
2018-02-19T06:18:55.831Z,0.38
2018-02-19T06:19:58.303Z,0.32
2018-02-19T06:21:00.804Z,0.33
2018-02-19T06:22:03.287Z,0.35
2018-02-19T06:23:05.765Z,0.34
2018-02-19T06:24:08.260Z,0.38
2018-02-19T06:25:10.749Z,0.39
2018-02-19T06:26:13.284Z,0.42
2018-02-19T06:27:15.778Z,0.38
2018-02-19T06:28:18.244Z,0.34
2018-02-19T06:29:20.759Z,0.28
2018-02-19T06:30:23.252Z,0.30
2018-02-19T06:31:25.752Z,0.34
2018-02-19T06:32:28.245Z,0.37
2018-02-19T06:33:30.739Z,0.44
2018-02-19T06:34:33.219Z,0.26
2018-02-19T06:35:35.721Z,0.30
2018-02-19T06:36:38.223Z,0.23
2018-02-19T06:37:40.717Z,0.27
2018-02-19T06:38:43.205Z,0.24
2018-02-19T06:39:45.709Z,0.19
2018-02-19T06:40:48.222Z,0.15
2018-02-19T06:41:50.728Z,0.24
2018-02-19T06:42:53.292Z,0.33
2018-02-19T06:43:55.777Z,0.26
2018-02-19T06:44:58.396Z,0.44
2018-02-19T06:46:00.892Z,0.44
2018-02-19T06:47:03.385Z,0.43
2018-02-19T06:48:05.945Z,0.44
2018-02-19T06:49:08.547Z,0.44
2018-02-19T06:50:11.023Z,0.49
2018-02-19T06:51:13.565Z,0.46
2018-02-19T06:52:16.089Z,0.41
2018-02-19T06:53:18.571Z,0.53
2018-02-19T06:54:21.115Z,0.35
2018-02-19T06:55:23.582Z,0.34
2018-02-19T06:56:26.078Z,0.31
2018-02-19T06:57:28.603Z,0.35
2018-02-19T06:58:31.098Z,0.28
2018-02-19T06:59:33.616Z,0.44
2018-02-19T07:00:36.110Z,0.48
2018-02-19T07:01:38.613Z,0.50
2018-02-19T07:02:41.182Z,0.51
2018-02-19T07:03:43.663Z,0.52
2018-02-19T07:04:46.156Z,0.61
2018-02-19T07:05:48.631Z,0.62
2018-02-19T07:06:51.103Z,0.63
2018-02-19T07:07:53.600Z,0.64
2018-02-19T07:08:56.154Z,0.58
2018-02-19T07:09:58.631Z,0.74
2018-02-19T07:11:01.133Z,0.60
2018-02-19T07:12:03.628Z,0.59
2018-02-19T07:13:06.155Z,0.62
2018-02-19T07:14:08.724Z,0.69
2018-02-19T07:15:11.234Z,0.80
2018-02-19T07:16:13.712Z,0.59
2018-02-19T07:17:16.205Z,0.58
2018-02-19T07:18:18.698Z,0.74
2018-02-19T07:19:21.176Z,0.87
2018-02-19T07:20:23.662Z,0.82
2018-02-19T07:21:26.156Z,0.81
2018-02-19T07:22:28.641Z,0.91
2018-02-19T07:23:31.130Z,0.97
2018-02-19T07:24:33.605Z,0.85
2018-02-19T07:25:36.082Z,0.84
2018-02-19T07:26:38.573Z,0.94
2018-02-19T07:27:41.077Z,0.93
2018-02-19T07:28:43.563Z,0.95
2018-02-19T07:29:46.057Z,0.78
2018-02-19T07:30:48.595Z,0.76
2018-02-19T07:31:51.079Z,0.70
2018-02-19T07:32:53.573Z,0.83
2018-02-19T07:33:56.078Z,0.96
2018-02-19T07:34:58.569Z,1.00
2018-02-19T07:36:01.040Z,0.99
2018-02-19T07:37:03.516Z,0.98
2018-02-19T07:38:06.006Z,1.06
2018-02-19T07:39:08.501Z,1.23
2018-02-19T07:40:10.986Z,1.22
2018-02-19T07:41:13.623Z,1.23
2018-02-19T07:42:16.149Z,1.18
2018-02-19T07:43:18.630Z,1.15
2018-02-19T07:44:21.145Z,1.28
2018-02-19T07:45:23.617Z,1.23
2018-02-19T07:46:26.106Z,1.22
2018-02-19T07:47:28.590Z,1.39
2018-02-19T07:48:31.059Z,1.34
2018-02-19T07:49:33.549Z,1.47
2018-02-19T07:50:36.038Z,1.48
2018-02-19T07:51:38.545Z,1.60
2018-02-19T07:52:41.037Z,1.51
2018-02-19T07:53:43.558Z,1.56
2018-02-19T07:54:46.047Z,1.49
2018-02-19T07:55:48.530Z,1.50
2018-02-19T07:56:51.010Z,1.61
2018-02-19T07:57:53.487Z,1.51
2018-02-19T07:58:55.951Z,1.62
2018-02-19T07:59:58.434Z,1.40
2018-02-19T08:01:00.923Z,1.63
2018-02-19T08:02:03.395Z,1.72
2018-02-19T08:03:05.864Z,1.78
2018-02-19T08:04:08.350Z,2.33
2018-02-19T08:05:10.840Z,2.28
2018-02-19T08:06:13.315Z,2.22
2018-02-19T08:07:15.802Z,2.02
2018-02-19T08:08:18.297Z,2.08
2018-02-19T08:09:20.769Z,2.09
2018-02-19T08:10:23.252Z,2.03
2018-02-19T08:11:25.809Z,1.98
2018-02-19T08:12:28.371Z,2.65
2018-02-19T08:13:30.804Z,2.52
2018-02-19T08:14:33.289Z,2.38
2018-02-19T08:15:35.774Z,2.67
2018-02-19T08:16:38.270Z,2.75
2018-02-19T08:17:40.741Z,2.48
2018-02-19T08:18:43.237Z,2.16
2018-02-19T08:19:45.726Z,2.11
2018-02-19T08:20:48.217Z,2.14
2018-02-19T08:21:50.679Z,2.20
2018-02-19T08:22:53.163Z,2.18
2018-02-19T08:23:55.687Z,2.14
2018-02-19T08:24:58.127Z,2.14
2018-02-19T08:26:00.617Z,2.22
2018-02-19T08:27:03.117Z,2.53
2018-02-19T08:28:05.601Z,2.24
2018-02-19T08:29:08.075Z,2.17
2018-02-19T08:30:10.555Z,2.16
2018-02-19T08:31:13.073Z,2.14
2018-02-19T08:32:15.586Z,2.06
2018-02-19T08:33:18.063Z,2.19
2018-02-19T08:34:20.555Z,2.42
2018-02-19T08:35:23.027Z,2.30
2018-02-19T08:36:25.518Z,2.11
2018-02-19T08:37:28.009Z,2.01
2018-02-19T08:38:30.492Z,2.01
2018-02-19T08:39:32.963Z,1.95
2018-02-19T08:40:35.435Z,1.91
2018-02-19T08:41:37.937Z,1.90
2018-02-19T08:42:40.421Z,1.92
2018-02-19T08:43:42.921Z,2.00
2018-02-19T08:44:45.392Z,1.96
2018-02-19T08:45:47.890Z,2.00
2018-02-19T08:46:50.371Z,2.10
2018-02-19T08:47:52.840Z,2.26
2018-02-19T08:48:55.325Z,2.18
2018-02-19T08:49:57.810Z,2.13
2018-02-19T08:51:00.303Z,2.32
2018-02-19T08:52:02.782Z,2.21
2018-02-19T08:53:05.270Z,2.24
2018-02-19T08:54:07.876Z,2.29
2018-02-19T08:55:10.365Z,2.60
2018-02-19T08:56:12.851Z,2.72
2018-02-19T08:57:15.315Z,2.77
2018-02-19T08:58:17.797Z,2.97
2018-02-19T08:59:20.288Z,3.48
2018-02-19T09:00:22.765Z,3.73
2018-02-19T09:01:25.264Z,3.59
2018-02-19T09:02:27.754Z,3.57
2018-02-19T09:03:30.231Z,3.60
2018-02-19T09:04:32.723Z,3.50
2018-02-19T09:05:35.207Z,3.37
2018-02-19T09:06:37.711Z,3.53
2018-02-19T09:07:40.180Z,3.11
2018-02-19T09:08:42.661Z,3.06
2018-02-19T09:09:45.139Z,2.99
2018-02-19T09:10:47.630Z,2.91
2018-02-19T09:11:50.132Z,2.77
2018-02-19T09:12:52.626Z,2.75
2018-02-19T09:13:55.096Z,2.62
2018-02-19T09:14:57.589Z,2.62
2018-02-19T09:16:00.070Z,2.58
2018-02-19T09:17:02.599Z,2.70
2018-02-19T09:18:05.078Z,2.92
2018-02-19T09:19:07.577Z,2.91
2018-02-19T09:20:10.048Z,2.65
2018-02-19T09:21:12.515Z,2.80
2018-02-19T09:22:15.053Z,2.76
2018-02-19T09:23:17.535Z,2.73
2018-02-19T09:24:20.012Z,2.67
2018-02-19T09:25:22.479Z,2.49
2018-02-19T09:26:24.960Z,2.64
2018-02-19T09:27:27.482Z,2.39
2018-02-19T09:28:29.955Z,2.39
2018-02-19T09:29:32.445Z,2.31
2018-02-19T09:30:34.988Z,2.19
2018-02-19T09:31:37.470Z,2.19
2018-02-19T09:32:39.998Z,2.14
2018-02-19T09:33:42.478Z,2.19
2018-02-19T09:34:44.945Z,2.35
2018-02-19T09:35:47.419Z,2.43
2018-02-19T09:36:50.033Z,2.53
2018-02-19T09:37:52.557Z,2.54
2018-02-19T09:38:55.028Z,2.63
2018-02-19T09:39:57.495Z,2.60
2018-02-19T09:40:59.977Z,2.79
2018-02-19T09:42:02.462Z,2.90
2018-02-19T09:43:04.949Z,3.17
2018-02-19T09:44:07.428Z,2.89
2018-02-19T09:45:09.896Z,2.82
2018-02-19T09:46:12.374Z,3.07
2018-02-19T09:47:14.843Z,3.15
2018-02-19T09:48:17.347Z,2.97
2018-02-19T09:49:19.837Z,3.05
2018-02-19T09:50:22.307Z,3.13
2018-02-19T09:51:24.780Z,3.17
2018-02-19T09:52:27.334Z,3.35
2018-02-19T09:53:29.846Z,3.50
2018-02-19T09:54:32.318Z,3.66
2018-02-19T09:55:34.791Z,3.46
2018-02-19T09:56:37.385Z,3.39
2018-02-19T09:57:39.893Z,3.59
2018-02-19T09:58:42.451Z,3.56
2018-02-19T09:59:44.934Z,3.40
2018-02-19T10:00:47.427Z,3.21
2018-02-19T10:01:49.895Z,3.76
2018-02-19T10:02:52.362Z,4.16
2018-02-19T10:03:54.873Z,4.56
2018-02-19T10:04:57.343Z,4.88
2018-02-19T10:05:59.816Z,5.07
2018-02-19T10:07:02.283Z,4.63
2018-02-19T10:08:04.756Z,4.50
2018-02-19T10:09:07.283Z,4.59
2018-02-19T10:10:09.772Z,4.39
2018-02-19T10:11:12.360Z,4.49
2018-02-19T10:12:14.845Z,4.87
2018-02-19T10:13:17.332Z,4.43
2018-02-19T10:14:19.938Z,3.98
2018-02-19T10:15:22.782Z,3.66
2018-02-19T10:16:25.261Z,3.95
2018-02-19T10:17:27.763Z,4.08
2018-02-19T10:18:30.245Z,4.25
2018-02-19T10:19:32.750Z,4.24
2018-02-19T10:20:35.230Z,4.09
2018-02-19T10:21:37.742Z,3.96
2018-02-19T10:22:40.211Z,4.01
2018-02-19T10:23:42.701Z,3.52
2018-02-19T10:24:45.204Z,3.73
2018-02-19T10:25:47.671Z,4.22
2018-02-19T10:26:50.150Z,4.50
2018-02-19T10:27:52.642Z,4.58
2018-02-19T10:28:55.138Z,4.48
2018-02-19T10:29:57.639Z,4.46
2018-02-19T10:31:00.129Z,4.50
2018-02-19T10:32:02.599Z,4.84
2018-02-19T10:33:05.085Z,4.50
2018-02-19T10:34:07.627Z,4.67
2018-02-19T10:35:10.133Z,4.39
2018-02-19T10:36:12.604Z,4.37
2018-02-19T10:37:15.083Z,4.46
2018-02-19T10:38:17.566Z,4.80
2018-02-19T10:39:20.036Z,4.53
2018-02-19T10:40:22.539Z,4.67
2018-02-19T10:41:25.011Z,5.06
2018-02-19T10:42:27.519Z,5.29
2018-02-19T10:43:29.988Z,5.36
2018-02-19T10:44:32.483Z,5.64
2018-02-19T10:45:34.980Z,5.70
2018-02-19T10:46:37.569Z,5.34
2018-02-19T10:47:40.043Z,5.41
2018-02-19T10:48:42.538Z,5.21
2018-02-19T10:49:45.034Z,5.35
2018-02-19T10:50:47.542Z,5.32
2018-02-19T10:51:50.034Z,5.06
2018-02-19T10:52:52.527Z,5.07
2018-02-19T10:53:55.025Z,5.41
2018-02-19T10:54:57.553Z,5.31
2018-02-19T10:56:00.790Z,5.58
2018-02-19T10:57:03.280Z,4.89
2018-02-19T10:58:05.770Z,4.78
2018-02-19T10:59:08.242Z,5.02
2018-02-19T11:00:10.716Z,5.19
2018-02-19T11:01:13.219Z,5.07
2018-02-19T11:02:15.707Z,5.24
2018-02-19T11:03:18.185Z,5.55
2018-02-19T11:04:20.686Z,6.21
2018-02-19T11:05:23.169Z,6.22
2018-02-19T11:06:25.674Z,6.38
2018-02-19T11:07:28.174Z,6.45
2018-02-19T11:08:30.635Z,6.62
2018-02-19T11:09:33.915Z,7.09
2018-02-19T11:10:36.387Z,7.93
2018-02-19T11:11:38.894Z,8.33
2018-02-19T11:12:41.374Z,7.54
2018-02-19T11:13:43.865Z,7.76
2018-02-19T11:14:46.336Z,8.28
2018-02-19T11:15:48.864Z,8.24
2018-02-19T11:16:51.373Z,7.57
2018-02-19T11:17:53.858Z,8.42
2018-02-19T11:18:56.361Z,8.68
2018-02-19T11:19:58.840Z,9.09
2018-02-19T11:21:01.317Z,9.24
2018-02-19T11:22:03.812Z,9.07
2018-02-19T11:23:06.290Z,8.94
2018-02-19T11:24:08.802Z,8.72
2018-02-19T11:25:11.259Z,7.76
2018-02-19T11:26:13.737Z,7.29
2018-02-19T11:27:16.249Z,7.49
2018-02-19T11:28:18.721Z,7.16
2018-02-19T11:29:21.191Z,6.65
2018-02-19T11:30:23.664Z,7.10
2018-02-19T11:31:26.139Z,6.95
2018-02-19T11:32:28.639Z,6.82
2018-02-19T11:33:31.106Z,6.03
2018-02-19T11:34:33.576Z,6.52
2018-02-19T11:35:36.086Z,6.49
2018-02-19T11:36:38.573Z,6.30
2018-02-19T11:37:41.059Z,6.91
2018-02-19T11:38:43.554Z,7.80
2018-02-19T11:39:46.121Z,8.36
2018-02-19T11:40:48.606Z,7.43
2018-02-19T11:41:51.091Z,7.27
2018-02-19T11:42:53.591Z,7.21
2018-02-19T11:43:56.078Z,6.86
2018-02-19T11:44:58.565Z,7.01
2018-02-19T11:46:01.038Z,7.24
2018-02-19T11:47:03.530Z,6.93
2018-02-19T11:48:06.043Z,6.70
2018-02-19T11:49:08.534Z,6.97
2018-02-19T11:50:11.028Z,6.73
2018-02-19T11:51:13.496Z,6.84
2018-02-19T11:52:15.967Z,7.18
2018-02-19T11:53:18.467Z,7.71
2018-02-19T11:54:20.940Z,7.57
2018-02-19T11:55:23.415Z,7.35
2018-02-19T11:56:25.891Z,6.74
2018-02-19T11:57:28.371Z,6.74
2018-02-19T11:58:30.874Z,6.91
2018-02-19T11:59:33.347Z,7.06
2018-02-19T12:00:35.815Z,7.39
2018-02-19T12:01:38.287Z,7.35
2018-02-19T12:02:40.761Z,7.69
2018-02-19T12:03:43.265Z,7.48
2018-02-19T12:04:45.732Z,7.29
2018-02-19T12:05:48.208Z,7.32
2018-02-19T12:06:50.694Z,7.41
2018-02-19T12:07:53.159Z,7.36
2018-02-19T12:08:55.648Z,7.15
2018-02-19T12:09:58.123Z,7.29
2018-02-19T12:11:00.611Z,7.35
2018-02-19T12:12:03.094Z,7.45
2018-02-19T12:13:05.582Z,7.61
2018-02-19T12:14:08.152Z,7.08
2018-02-19T12:15:10.825Z,6.71
2018-02-19T12:16:13.323Z,6.76
2018-02-19T12:17:15.800Z,6.57
2018-02-19T12:18:18.324Z,7.01
2018-02-19T12:19:20.828Z,7.69
2018-02-19T12:20:23.300Z,8.00
2018-02-19T12:21:25.819Z,7.99
2018-02-19T12:22:28.292Z,8.14
2018-02-19T12:23:30.777Z,8.40
2018-02-19T12:24:33.283Z,8.81
2018-02-19T12:25:35.755Z,9.17
2018-02-19T12:26:38.223Z,9.57
2018-02-19T12:27:40.687Z,9.72
2018-02-19T12:28:43.177Z,10.21
2018-02-19T12:29:45.784Z,10.04
2018-02-19T12:30:48.369Z,10.13
2018-02-19T12:31:50.844Z,10.89
2018-02-19T12:32:53.332Z,9.99
2018-02-19T12:33:55.823Z,10.12
2018-02-19T12:34:58.341Z,9.68
2018-02-19T12:36:00.826Z,9.10
2018-02-19T12:37:03.307Z,9.31
2018-02-19T12:38:05.791Z,9.41
2018-02-19T12:39:08.527Z,9.40
2018-02-19T12:40:11.049Z,10.23
2018-02-19T12:41:13.546Z,10.77
2018-02-19T12:42:16.024Z,11.28
2018-02-19T12:43:18.498Z,11.57
2018-02-19T12:44:20.968Z,11.56
2018-02-19T12:45:23.525Z,11.45
2018-02-19T12:46:26.013Z,11.04
2018-02-19T12:47:28.499Z,11.47
2018-02-19T12:48:30.971Z,12.18
2018-02-19T12:49:33.470Z,11.56
2018-02-19T12:50:35.967Z,12.42
2018-02-19T12:51:38.458Z,12.22
2018-02-19T12:52:40.943Z,12.36
2018-02-19T12:53:43.420Z,13.78
2018-02-19T12:54:45.911Z,14.34
2018-02-19T12:55:48.412Z,15.71
2018-02-19T12:56:50.927Z,15.02
2018-02-19T12:57:53.419Z,14.09
2018-02-19T12:58:55.915Z,13.13
2018-02-19T12:59:58.426Z,14.42
2018-02-19T13:01:00.943Z,14.51
2018-02-19T13:02:03.424Z,16.15
2018-02-19T13:03:05.906Z,16.94
2018-02-19T13:04:08.397Z,18.05
2018-02-19T13:05:10.880Z,18.81
2018-02-19T13:06:13.385Z,19.03
2018-02-19T13:07:15.869Z,19.15
2018-02-19T13:08:18.343Z,18.41
2018-02-19T13:09:20.826Z,18.54
2018-02-19T13:10:23.307Z,19.11
2018-02-19T13:11:25.807Z,17.15
2018-02-19T13:12:28.293Z,15.26
2018-02-19T13:13:30.794Z,15.04
2018-02-19T13:14:33.290Z,16.34
2018-02-19T13:15:35.782Z,16.34
2018-02-19T13:16:38.296Z,14.86
2018-02-19T13:17:40.775Z,14.75
2018-02-19T13:18:43.271Z,14.33
2018-02-19T13:19:45.761Z,13.15
2018-02-19T13:20:48.255Z,14.24
2018-02-19T13:21:50.826Z,13.66
2018-02-19T13:22:53.298Z,14.28
2018-02-19T13:23:55.778Z,15.18
2018-02-19T13:24:58.267Z,14.47
2018-02-19T13:26:00.760Z,14.01
2018-02-19T13:27:03.272Z,13.89
2018-02-19T13:28:05.816Z,13.67
2018-02-19T13:29:08.291Z,14.04
2018-02-19T13:30:10.768Z,13.16
2018-02-19T13:31:13.263Z,12.14
2018-02-19T13:32:15.785Z,11.66
2018-02-19T13:33:18.373Z,11.12
2018-02-19T13:34:20.863Z,11.41
2018-02-19T13:35:23.413Z,11.51
2018-02-19T13:36:26.026Z,12.05
2018-02-19T13:37:28.509Z,12.56
2018-02-19T13:38:30.992Z,11.77
2018-02-19T13:39:33.477Z,11.53
2018-02-19T13:40:36.024Z,10.80
2018-02-19T13:41:38.571Z,9.89
2018-02-19T13:42:41.090Z,9.83
2018-02-19T13:43:43.560Z,9.37
2018-02-19T13:44:46.162Z,8.64
2018-02-19T13:45:48.654Z,8.21
2018-02-19T13:46:51.119Z,8.25